Time;durP1;ratioP1;P1;durP2;ratioP2;P2;SDS_P1;SDS_P2;PMS_P1;PMS_P2;Temp;Humidity;BMP_temperature;BMP_pressure;BME280_temperature;BME280_humidity;BME280_pressure;Samples;Min_cycle;Max_cycle;Signal;HPM_P1;HPM_P2
2023/04/03 00:02:21;;;;;;;2.33;0.90;;;;;;;;;;5035423;28;20235;-65
2023/04/03 00:04:46;;;;;;;3.87;0.93;;;;;;;;;;5031576;28;20649;-65
2023/04/03 00:07:12;;;;;;;1.37;0.87;;;;;;;;;;5034059;28;20173;-64
2023/04/03 00:09:37;;;;;;;2.80;0.87;;;;;;;;;;5039098;28;20207;-65
2023/04/03 00:12:03;;;;;;;2.17;0.90;;;;;;;;;;5040497;28;20433;-65
2023/04/03 00:14:28;;;;;;;2.30;0.80;;;;;;;;;;5040657;28;20210;-65
2023/04/03 00:16:53;;;;;;;2.60;0.90;;;;;;;;;;5039264;28;20257;-64
2023/04/03 00:19:19;;;;;;;4.07;0.90;;;;;;;;;;5037948;28;20238;-64
2023/04/03 00:21:44;;;;;;;2.90;0.90;;;;;;;;;;5048478;28;20176;-65
2023/04/03 00:24:10;;;;;;;3.00;1.10;;;;;;;;;;5037652;28;20165;-65
2023/04/03 00:26:35;;;;;;;6.50;0.90;;;;;;;;;;5037383;28;20666;-65
2023/04/03 00:29:00;;;;;;;2.30;0.93;;;;;;;;;;5034759;28;20200;-65
2023/04/03 00:31:26;;;;;;;1.50;0.90;;;;;;;;;;5040227;28;20180;-65
2023/04/03 00:33:51;;;;;;;1.53;0.93;;;;;;;;;;5037197;28;20593;-64
2023/04/03 00:36:16;;;;;;;1.90;0.90;;;;;;;;;;5029535;28;20231;-64
2023/04/03 00:38:41;;;;;;;3.50;1.07;;;;;;;;;;5031822;28;20199;-65
2023/04/03 00:41:07;;;;;;;1.73;0.87;;;;;;;;;;5032199;28;20276;-64
2023/04/03 00:43:32;;;;;;;3.60;1.30;;;;;;;;;;5036182;28;20187;-65
2023/04/03 00:45:58;;;;;;;2.67;1.37;;;;;;;;;;5031516;28;20629;-64
2023/04/03 00:48:35;;;;;;;3.70;0.90;;;;;;;;;;5034999;28;20188;-65
2023/04/03 00:51:02;;;;;;;3.80;1.23;;;;;;;;;;5034532;28;20184;-65
2023/04/03 00:53:30;;;;;;;1.87;0.93;;;;;;;;;;5036322;28;20904;-64
2023/04/03 00:55:56;;;;;;;2.20;0.97;;;;;;;;;;5029862;28;20829;-65
2023/04/03 00:58:25;;;;;;;2.33;1.10;;;;;;;;;;5028581;28;20471;-65
2023/04/03 01:00:57;;;;;;;1.40;0.80;;;;;;;;;;5036594;28;20184;-65
2023/04/03 01:03:22;;;;;;;1.30;1.10;;;;;;;;;;5032762;28;20435;-65
2023/04/03 01:05:48;;;;;;;2.43;0.80;;;;;;;;;;5035836;28;20533;-65
2023/04/03 01:08:13;;;;;;;1.93;1.00;;;;;;;;;;5029587;28;20184;-65
2023/04/03 01:10:38;;;;;;;10.80;1.90;;;;;;;;;;5035052;28;20195;-65
2023/04/03 01:13:17;;;;;;;2.50;1.17;;;;;;;;;;5034820;28;20184;-64
2023/04/03 01:15:42;;;;;;;2.27;1.00;;;;;;;;;;5038360;28;20208;-64
2023/04/03 01:18:09;;;;;;;1.90;1.10;;;;;;;;;;5034288;28;20501;-64
2023/04/03 01:20:40;;;;;;;1.80;1.13;;;;;;;;;;5033626;28;25675;-65
2023/04/03 01:23:08;;;;;;;3.47;1.10;;;;;;;;;;5047967;28;20431;-64
2023/04/03 01:25:35;;;;;;;2.40;1.10;;;;;;;;;;5032856;28;20513;-65
2023/04/03 01:28:00;;;;;;;3.70;1.20;;;;;;;;;;5036150;28;20426;-64
2023/04/03 01:30:30;;;;;;;1.97;1.43;;;;;;;;;;5034370;28;20973;-64
2023/04/03 01:32:55;;;;;;;2.73;1.00;;;;;;;;;;5037887;28;20188;-64
2023/04/03 01:35:21;;;;;;;3.90;1.33;;;;;;;;;;5034685;28;20431;-65
2023/04/03 01:37:46;;;;;;;3.30;1.83;;;;;;;;;;5033457;28;20211;-65
2023/04/03 01:40:11;;;;;;;1.60;1.03;;;;;;;;;;5030054;28;20615;-64
2023/04/03 01:42:36;;;;;;;3.40;1.23;;;;;;;;;;5034170;28;20184;-64
2023/04/03 01:45:02;;;;;;;1.97;1.30;;;;;;;;;;5037723;28;20262;-64
2023/04/03 01:47:27;;;;;;;4.80;1.13;;;;;;;;;;5034321;28;20191;-65
2023/04/03 01:49:52;;;;;;;3.40;1.30;;;;;;;;;;5037497;28;20295;-66
2023/04/03 01:52:18;;;;;;;3.40;1.40;;;;;;;;;;5038508;28;20203;-65
2023/04/03 01:54:43;;;;;;;3.93;1.37;;;;;;;;;;5038735;28;20659;-65
2023/04/03 01:57:08;;;;;;;4.20;1.30;;;;;;;;;;5038844;28;20639;-65
2023/04/03 01:59:34;;;;;;;2.67;1.00;;;;;;;;;;5033502;28;20250;-65
2023/04/03 02:01:59;;;;;;;1.90;1.20;;;;;;;;;;5036280;28;20190;-65
2023/04/03 02:04:24;;;;;;;3.10;0.90;;;;;;;;;;5037210;28;20175;-65
2023/04/03 02:06:50;;;;;;;4.40;1.60;;;;;;;;;;5037996;28;20250;-65
2023/04/03 02:09:15;;;;;;;3.57;1.70;;;;;;;;;;5044056;28;20208;-65
2023/04/03 02:11:40;;;;;;;1.97;1.20;;;;;;;;;;5043923;28;20211;-65
2023/04/03 02:14:06;;;;;;;2.70;1.07;;;;;;;;;;5043115;28;20233;-64
2023/04/03 02:16:31;;;;;;;2.40;1.10;;;;;;;;;;5041708;28;20199;-65
2023/04/03 02:18:56;;;;;;;1.83;1.30;;;;;;;;;;5043656;28;20231;-65
2023/04/03 02:21:22;;;;;;;2.03;1.33;;;;;;;;;;5039429;28;20176;-64
2023/04/03 02:23:47;;;;;;;2.17;1.10;;;;;;;;;;5034475;28;20310;-65
2023/04/03 02:26:13;;;;;;;2.10;1.07;;;;;;;;;;5036486;28;20230;-65
2023/04/03 02:28:39;;;;;;;5.00;1.63;;;;;;;;;;5036765;28;20248;-65
2023/04/03 02:31:06;;;;;;;2.60;1.30;;;;;;;;;;5038545;28;20422;-65
2023/04/03 02:33:31;;;;;;;2.13;1.67;;;;;;;;;;5039019;28;20466;-65
2023/04/03 02:35:57;;;;;;;4.47;1.67;;;;;;;;;;5025148;28;20910;-65
2023/04/03 02:38:23;;;;;;;4.40;1.90;;;;;;;;;;5037834;28;20704;-65
2023/04/03 02:40:48;;;;;;;10.10;1.63;;;;;;;;;;5034523;28;20531;-65
2023/04/03 02:43:13;;;;;;;6.70;1.40;;;;;;;;;;5035215;28;20649;-65
2023/04/03 02:45:39;;;;;;;1.93;1.07;;;;;;;;;;5035922;28;20175;-64
2023/04/03 02:48:05;;;;;;;2.77;1.50;;;;;;;;;;5037718;28;20183;-65
2023/04/03 02:50:30;;;;;;;3.60;1.47;;;;;;;;;;5039139;28;20588;-65
2023/04/03 02:52:55;;;;;;;3.63;1.50;;;;;;;;;;5038105;28;20191;-64
2023/04/03 02:55:20;;;;;;;4.87;1.30;;;;;;;;;;5041191;28;20183;-65
2023/04/03 02:57:46;;;;;;;2.60;1.60;;;;;;;;;;5040425;28;20253;-65
2023/04/03 03:00:11;;;;;;;2.30;1.27;;;;;;;;;;5037440;28;20195;-65
2023/04/03 03:02:36;;;;;;;4.47;1.40;;;;;;;;;;5037963;28;20181;-65
2023/04/03 03:05:02;;;;;;;4.40;1.30;;;;;;;;;;5036606;28;20548;-65
2023/04/03 03:07:27;;;;;;;3.53;1.17;;;;;;;;;;5032271;28;20180;-65
2023/04/03 03:09:52;;;;;;;4.40;1.40;;;;;;;;;;5038199;28;20209;-65
2023/04/03 03:12:21;;;;;;;2.90;1.20;;;;;;;;;;5040010;28;20226;-65
2023/04/03 03:14:47;;;;;;;2.27;1.57;;;;;;;;;;5039185;28;20187;-65
2023/04/03 03:17:12;;;;;;;5.13;1.40;;;;;;;;;;5039083;28;20520;-65
2023/04/03 03:19:37;;;;;;;3.37;1.60;;;;;;;;;;5033216;28;20193;-66
2023/04/03 03:22:03;;;;;;;2.93;1.10;;;;;;;;;;5034315;28;20674;-65
2023/04/03 03:24:28;;;;;;;4.87;1.90;;;;;;;;;;5031685;28;20592;-65
2023/04/03 03:26:53;;;;;;;2.00;0.97;;;;;;;;;;5032186;28;20203;-65
2023/04/03 03:29:19;;;;;;;3.43;1.50;;;;;;;;;;5030557;28;20275;-66
2023/04/03 03:31:44;;;;;;;2.80;1.60;;;;;;;;;;5036321;28;20245;-65
2023/04/03 03:34:09;;;;;;;2.03;1.40;;;;;;;;;;5040451;28;20579;-65
2023/04/03 03:36:35;;;;;;;2.70;1.50;;;;;;;;;;5036370;28;20201;-65
2023/04/03 03:39:00;;;;;;;1.93;1.30;;;;;;;;;;5036949;28;20261;-66
2023/04/03 03:41:26;;;;;;;6.13;2.03;;;;;;;;;;5034309;28;20751;-65
2023/04/03 03:43:51;;;;;;;4.83;1.80;;;;;;;;;;5033205;28;22296;-65
2023/04/03 03:46:16;;;;;;;4.30;1.70;;;;;;;;;;5031412;28;20180;-65
2023/04/03 03:48:41;;;;;;;2.70;1.60;;;;;;;;;;5038085;28;20674;-65
2023/04/03 03:51:07;;;;;;;4.00;1.57;;;;;;;;;;5033592;28;20196;-65
2023/04/03 03:53:32;;;;;;;2.70;1.30;;;;;;;;;;5036724;28;20302;-65
2023/04/03 03:55:57;;;;;;;2.50;1.40;;;;;;;;;;5038838;28;20200;-65
2023/04/03 03:58:23;;;;;;;3.73;1.63;;;;;;;;;;5034211;28;20711;-65
2023/04/03 04:00:48;;;;;;;5.70;1.70;;;;;;;;;;5033005;28;21763;-65
2023/04/03 04:03:13;;;;;;;5.13;1.60;;;;;;;;;;5034976;28;20179;-65
2023/04/03 04:05:39;;;;;;;3.73;1.80;;;;;;;;;;5037117;28;20173;-65
2023/04/03 04:08:04;;;;;;;3.00;1.53;;;;;;;;;;5037949;28;20176;-66
2023/04/03 04:10:30;;;;;;;3.33;1.57;;;;;;;;;;5043393;28;20226;-65
2023/04/03 04:12:56;;;;;;;2.33;1.70;;;;;;;;;;5037505;28;20824;-65
2023/04/03 04:15:21;;;;;;;4.73;1.40;;;;;;;;;;5039320;28;20218;-64
2023/04/03 04:17:46;;;;;;;2.67;1.70;;;;;;;;;;5040059;28;20214;-65
2023/04/03 04:20:12;;;;;;;3.60;1.57;;;;;;;;;;5034824;28;20231;-65
2023/04/03 04:22:38;;;;;;;3.57;1.90;;;;;;;;;;5038828;28;20181;-65
2023/04/03 04:25:04;;;;;;;5.03;1.90;;;;;;;;;;5033356;28;20224;-64
2023/04/03 04:27:29;;;;;;;8.43;1.77;;;;;;;;;;5035089;28;21122;-65
2023/04/03 04:29:55;;;;;;;3.20;1.80;;;;;;;;;;5033339;28;20212;-65
2023/04/03 04:32:20;;;;;;;5.90;1.90;;;;;;;;;;5036532;28;20180;-66
2023/04/03 04:34:45;;;;;;;4.50;1.70;;;;;;;;;;5033266;28;20180;-65
2023/04/03 04:37:11;;;;;;;3.07;1.43;;;;;;;;;;5035836;28;20203;-65
2023/04/03 04:39:36;;;;;;;4.30;2.30;;;;;;;;;;5034746;28;20661;-65
2023/04/03 04:42:01;;;;;;;5.20;2.17;;;;;;;;;;5046155;28;20183;-65
2023/04/03 04:44:27;;;;;;;3.67;1.80;;;;;;;;;;5034764;28;20233;-65
2023/04/03 04:46:52;;;;;;;4.90;2.30;;;;;;;;;;5034455;28;20212;-65
2023/04/03 04:49:17;;;;;;;4.83;2.17;;;;;;;;;;5037071;28;20235;-65
2023/04/03 04:51:42;;;;;;;3.70;2.10;;;;;;;;;;5035870;28;20242;-66
2023/04/03 04:54:08;;;;;;;4.17;2.13;;;;;;;;;;5033319;28;20187;-65
2023/04/03 04:56:33;;;;;;;4.80;2.33;;;;;;;;;;5028032;28;20199;-65
2023/04/03 04:58:58;;;;;;;5.27;2.33;;;;;;;;;;5032718;28;20654;-65
2023/04/03 05:01:24;;;;;;;5.50;2.30;;;;;;;;;;5035733;28;20179;-65
2023/04/03 05:03:49;;;;;;;5.30;2.30;;;;;;;;;;5030224;28;20180;-65
2023/04/03 05:06:14;;;;;;;3.60;1.93;;;;;;;;;;5040988;28;20203;-65
2023/04/03 05:08:40;;;;;;;4.67;2.40;;;;;;;;;;5039683;28;20196;-65
2023/04/03 05:11:05;;;;;;;4.60;2.13;;;;;;;;;;5037415;28;20546;-65
2023/04/03 05:13:30;;;;;;;2.87;1.90;;;;;;;;;;5043270;28;20187;-65
2023/04/03 05:15:56;;;;;;;4.53;2.03;;;;;;;;;;5036925;28;20295;-65
2023/04/03 05:18:21;;;;;;;4.23;2.33;;;;;;;;;;5040250;28;20568;-65
2023/04/03 05:20:48;;;;;;;4.63;2.30;;;;;;;;;;5038831;28;20187;-65
2023/04/03 05:23:13;;;;;;;7.60;2.83;;;;;;;;;;5041000;28;20184;-65
2023/04/03 05:25:38;;;;;;;5.03;2.30;;;;;;;;;;5039407;28;20484;-65
2023/04/03 05:28:04;;;;;;;4.90;2.40;;;;;;;;;;5038460;28;20633;-65
2023/04/03 05:30:29;;;;;;;6.30;2.80;;;;;;;;;;5047182;28;20199;-65
2023/04/03 05:32:55;;;;;;;5.10;2.40;;;;;;;;;;5039870;28;20530;-65
2023/04/03 05:35:20;;;;;;;4.87;2.57;;;;;;;;;;5039172;28;20176;-65
2023/04/03 05:37:46;;;;;;;8.80;3.50;;;;;;;;;;5038166;28;20199;-65
2023/04/03 05:40:11;;;;;;;6.50;3.03;;;;;;;;;;5038013;28;20223;-65
2023/04/03 05:42:36;;;;;;;6.40;2.70;;;;;;;;;;5038211;28;20173;-64
2023/04/03 05:45:02;;;;;;;6.40;3.03;;;;;;;;;;5040155;28;20177;-65
2023/04/03 05:47:27;;;;;;;6.03;2.43;;;;;;;;;;5039302;28;20296;-65
2023/04/03 05:49:53;;;;;;;3.90;2.20;;;;;;;;;;5040669;28;20208;-65
2023/04/03 05:52:18;;;;;;;3.93;2.10;;;;;;;;;;5038892;28;20192;-65
2023/04/03 05:54:46;;;;;;;6.03;2.63;;;;;;;;;;5040316;28;20190;-65
2023/04/03 05:57:11;;;;;;;4.30;2.67;;;;;;;;;;5041255;28;20288;-65
2023/04/03 05:59:37;;;;;;;7.40;2.63;;;;;;;;;;5039369;28;20478;-65
2023/04/03 06:02:02;;;;;;;7.23;2.60;;;;;;;;;;5039570;28;20179;-65
2023/04/03 06:04:28;;;;;;;4.43;2.43;;;;;;;;;;5040819;28;20176;-65
2023/04/03 06:06:54;;;;;;;5.80;2.60;;;;;;;;;;5039245;28;20930;-65
2023/04/03 06:09:20;;;;;;;6.63;2.60;;;;;;;;;;5039328;28;20627;-65
2023/04/03 06:11:46;;;;;;;4.10;2.60;;;;;;;;;;5042646;28;20782;-65
2023/04/03 06:14:11;;;;;;;7.10;3.20;;;;;;;;;;5039058;28;20422;-65
2023/04/03 06:16:38;;;;;;;4.20;2.10;;;;;;;;;;5039819;28;20278;-65
2023/04/03 06:19:04;;;;;;;3.50;2.00;;;;;;;;;;5038059;28;20204;-65
2023/04/03 06:21:30;;;;;;;5.40;2.83;;;;;;;;;;5041871;28;20413;-65
2023/04/03 06:23:55;;;;;;;8.73;3.10;;;;;;;;;;5039575;28;20402;-65
2023/04/03 06:26:20;;;;;;;6.53;2.80;;;;;;;;;;5042588;28;20506;-66
2023/04/03 06:28:46;;;;;;;2.83;2.07;;;;;;;;;;5042141;28;20685;-65
2023/04/03 06:31:11;;;;;;;6.20;2.60;;;;;;;;;;5042567;28;20561;-65
2023/04/03 06:33:36;;;;;;;3.80;2.63;;;;;;;;;;5039212;28;20181;-65
2023/04/03 06:36:04;;;;;;;5.30;2.87;;;;;;;;;;5042245;28;20207;-65
2023/04/03 06:38:29;;;;;;;5.80;3.87;;;;;;;;;;5042156;28;20291;-65
2023/04/03 06:40:55;;;;;;;12.70;2.97;;;;;;;;;;5036431;28;20495;-65
2023/04/03 06:43:21;;;;;;;4.60;2.60;;;;;;;;;;5026230;28;20203;-65
2023/04/03 06:45:47;;;;;;;5.53;3.07;;;;;;;;;;5026961;28;20458;-65
2023/04/03 06:48:12;;;;;;;4.20;2.40;;;;;;;;;;5036026;28;20312;-66
2023/04/03 06:50:37;;;;;;;5.87;3.00;;;;;;;;;;5040629;28;20188;-65
2023/04/03 06:53:03;;;;;;;5.00;2.70;;;;;;;;;;5034846;28;20177;-65
2023/04/03 06:55:29;;;;;;;6.27;2.10;;;;;;;;;;5035939;28;21118;-66
2023/04/03 06:57:55;;;;;;;4.50;2.50;;;;;;;;;;5042835;28;20239;-65
2023/04/03 07:00:20;;;;;;;5.43;2.63;;;;;;;;;;5039583;28;20224;-65
2023/04/03 07:02:46;;;;;;;7.10;2.47;;;;;;;;;;5042688;28;20575;-65
2023/04/03 07:05:11;;;;;;;5.90;2.83;;;;;;;;;;5042896;28;20211;-65
2023/04/03 07:07:37;;;;;;;3.30;2.00;;;;;;;;;;5035932;28;20183;-65
2023/04/03 07:10:03;;;;;;;5.17;2.27;;;;;;;;;;5042679;28;20204;-66
2023/04/03 07:12:28;;;;;;;3.30;1.80;;;;;;;;;;5042080;28;20184;-66
2023/04/03 07:14:53;;;;;;;3.70;1.87;;;;;;;;;;5040693;28;20917;-65
2023/04/03 07:17:19;;;;;;;3.90;1.93;;;;;;;;;;5037142;28;20327;-65
2023/04/03 07:19:44;;;;;;;6.30;3.33;;;;;;;;;;5039923;28;21037;-65
2023/04/03 07:22:11;;;;;;;6.70;2.70;;;;;;;;;;5039524;28;20184;-65
2023/04/03 07:24:36;;;;;;;9.00;1.90;;;;;;;;;;5039379;28;20172;-65
2023/04/03 07:27:02;;;;;;;6.17;1.80;;;;;;;;;;5035254;28;20439;-66
2023/04/03 07:29:28;;;;;;;3.30;1.70;;;;;;;;;;5025748;28;20257;-65
2023/04/03 07:31:55;;;;;;;4.83;1.47;;;;;;;;;;5034759;28;20543;-65
2023/04/03 07:34:20;;;;;;;5.13;1.87;;;;;;;;;;5037004;28;20204;-65
2023/04/03 07:36:45;;;;;;;3.13;1.70;;;;;;;;;;5037685;28;20920;-65
2023/04/03 07:39:11;;;;;;;3.67;1.57;;;;;;;;;;5038962;28;20207;-65
2023/04/03 07:41:36;;;;;;;6.60;1.83;;;;;;;;;;5034356;28;20180;-65
2023/04/03 07:44:02;;;;;;;3.60;1.80;;;;;;;;;;5035422;28;20564;-65
2023/04/03 07:46:27;;;;;;;4.23;1.63;;;;;;;;;;5034733;28;20202;-65
2023/04/03 07:48:53;;;;;;;4.00;1.73;;;;;;;;;;5035270;28;20204;-65
2023/04/03 07:51:18;;;;;;;5.80;2.03;;;;;;;;;;5029480;28;20191;-65
2023/04/03 07:53:43;;;;;;;3.50;1.40;;;;;;;;;;5035537;28;20320;-66
2023/04/03 07:56:09;;;;;;;3.13;1.50;;;;;;;;;;5033797;28;21189;-65
2023/04/03 07:58:35;;;;;;;3.67;1.30;;;;;;;;;;5025383;28;20200;-65
2023/04/03 08:01:00;;;;;;;4.30;1.47;;;;;;;;;;5033749;28;20188;-65
2023/04/03 08:03:26;;;;;;;4.07;1.60;;;;;;;;;;5039076;28;20180;-65
2023/04/03 08:05:51;;;;;;;3.37;1.30;;;;;;;;;;5031623;28;20176;-66
2023/04/03 08:08:21;;;;;;;3.43;1.53;;;;;;;;;;5029674;28;20626;-65
2023/04/03 08:10:53;;;;;;;4.67;1.53;;;;;;;;;;5031700;28;20195;-65
2023/04/03 08:13:18;;;;;;;2.07;0.93;;;;;;;;;;5031794;28;20906;-65
2023/04/03 08:15:43;;;;;;;2.63;1.27;;;;;;;;;;5030186;28;20565;-65
2023/04/03 08:18:09;;;;;;;3.30;1.23;;;;;;;;;;5036286;28;20290;-65
2023/04/03 08:20:34;;;;;;;2.50;1.10;;;;;;;;;;5036846;28;20175;-65
2023/04/03 08:23:00;;;;;;;2.20;1.10;;;;;;;;;;5031651;28;20187;-65
2023/04/03 08:25:25;;;;;;;3.20;1.03;;;;;;;;;;5037632;28;20176;-66
2023/04/03 08:27:51;;;;;;;2.37;1.03;;;;;;;;;;5033888;28;20246;-66
2023/04/03 08:30:16;;;;;;;2.03;1.13;;;;;;;;;;5029998;28;20724;-66
2023/04/03 08:32:42;;;;;;;2.60;1.00;;;;;;;;;;5037692;28;20272;-66
2023/04/03 08:35:08;;;;;;;3.90;1.33;;;;;;;;;;5038653;28;20723;-66
2023/04/03 08:37:37;;;;;;;2.50;0.90;;;;;;;;;;5037695;28;20466;-66
2023/04/03 08:40:06;;;;;;;1.97;1.30;;;;;;;;;;5046305;28;20203;-65
2023/04/03 08:42:31;;;;;;;2.30;1.10;;;;;;;;;;5031734;28;21012;-66
2023/04/03 08:44:57;;;;;;;3.50;1.07;;;;;;;;;;5031711;28;20466;-65
2023/04/03 08:47:24;;;;;;;4.33;1.20;;;;;;;;;;5030592;28;20184;-65
2023/04/03 08:50:09;;;;;;;2.23;0.97;;;;;;;;;;5032351;28;20211;-66
2023/04/03 08:52:39;;;;;;;2.03;1.03;;;;;;;;;;5028792;28;20572;-65
2023/04/03 08:55:07;;;;;;;2.20;1.03;;;;;;;;;;5037065;28;20435;-65
2023/04/03 08:57:35;;;;;;;1.90;0.90;;;;;;;;;;5048207;28;20477;-65
2023/04/03 09:00:02;;;;;;;2.70;0.90;;;;;;;;;;5039995;28;21113;-66
2023/04/03 09:02:48;;;;;;;1.53;0.90;;;;;;;;;;5038750;28;20446;-66
2023/04/03 09:05:25;;;;;;;3.10;1.00;;;;;;;;;;5031517;28;20422;-66
2023/04/03 09:07:59;;;;;;;2.93;1.00;;;;;;;;;;5038316;28;20939;-66
2023/04/03 09:10:28;;;;;;;1.47;0.90;;;;;;;;;;5039964;28;20476;-66
2023/04/03 09:12:59;;;;;;;2.30;1.03;;;;;;;;;;5040237;28;20992;-66
2023/04/03 09:15:25;;;;;;;1.30;0.80;;;;;;;;;;5039902;28;20445;-66
2023/04/03 09:18:04;;;;;;;8.87;1.50;;;;;;;;;;5043645;28;20458;-65
2023/04/03 09:20:41;;;;;;;2.70;1.07;;;;;;;;;;5052558;28;20442;-66
2023/04/03 09:23:14;;;;;;;1.57;0.80;;;;;;;;;;5037682;28;20762;-65
2023/04/03 09:25:40;;;;;;;27.53;3.10;;;;;;;;;;5037458;28;20947;-66
2023/04/03 09:28:09;;;;;;;34.97;3.43;;;;;;;;;;5039666;28;20431;-65
2023/04/03 09:30:35;;;;;;;6.63;1.80;;;;;;;;;;5037620;28;20239;-65
2023/04/03 09:33:01;;;;;;;15.57;2.13;;;;;;;;;;5038438;28;20956;-66
2023/04/03 09:35:28;;;;;;;5.20;1.43;;;;;;;;;;5040497;28;20637;-66
2023/04/03 09:37:57;;;;;;;3.27;0.93;;;;;;;;;;5039026;28;20481;-66
2023/04/03 09:40:25;;;;;;;2.13;1.03;;;;;;;;;;5036697;28;20537;-66
2023/04/03 09:42:52;;;;;;;57.80;4.33;;;;;;;;;;5038938;28;20415;-66
2023/04/03 09:45:31;;;;;;;9.03;1.90;;;;;;;;;;5038537;28;20418;-66
2023/04/03 09:48:12;;;;;;;26.53;3.90;;;;;;;;;;5037763;28;20422;-66
2023/04/03 09:50:37;;;;;;;6.67;2.03;;;;;;;;;;5037899;28;20961;-66
2023/04/03 09:53:07;;;;;;;1.83;0.80;;;;;;;;;;5037684;28;20423;-66
2023/04/03 09:55:32;;;;;;;4.30;0.93;;;;;;;;;;5036272;28;20241;-66
2023/04/03 09:58:03;;;;;;;1.93;0.80;;;;;;;;;;5036770;28;20474;-66
2023/04/03 10:00:33;;;;;;;1.70;0.90;;;;;;;;;;5037987;28;20261;-66
2023/04/03 10:02:59;;;;;;;0.70;0.70;;;;;;;;;;5041442;28;20812;-66
2023/04/03 10:05:35;;;;;;;3.03;1.00;;;;;;;;;;5039712;28;20415;-66
2023/04/03 10:08:12;;;;;;;3.13;0.70;;;;;;;;;;5038077;28;20197;-66
2023/04/03 10:10:38;;;;;;;1.30;0.90;;;;;;;;;;5041291;28;20480;-66
2023/04/03 10:13:05;;;;;;;2.30;1.13;;;;;;;;;;5042096;28;20426;-66
2023/04/03 10:15:33;;;;;;;5.93;2.00;;;;;;;;;;5041921;28;20176;-66
2023/04/03 10:18:01;;;;;;;1.33;0.83;;;;;;;;;;5041982;28;20520;-66
2023/04/03 10:20:27;;;;;;;8.33;1.23;;;;;;;;;;5041821;28;20994;-66
2023/04/03 10:23:08;;;;;;;8.50;1.47;;;;;;;;;;5041478;28;20455;-66
2023/04/03 10:25:39;;;;;;;1.40;0.67;;;;;;;;;;5041667;28;20171;-66
2023/04/03 10:28:21;;;;;;;2.17;1.47;;;;;;;;;;5042108;28;20502;-65
2023/04/03 10:30:50;;;;;;;1.67;0.93;;;;;;;;;;5042481;28;21027;-65
2023/04/03 10:33:35;;;;;;;2.40;0.70;;;;;;;;;;5039096;28;20963;-66
2023/04/03 10:36:18;;;;;;;2.00;0.77;;;;;;;;;;5040600;28;20414;-66
2023/04/03 10:38:59;;;;;;;4.27;1.27;;;;;;;;;;5037486;28;20447;-66
2023/04/03 10:41:33;;;;;;;2.20;0.80;;;;;;;;;;5039922;28;20394;-65
2023/04/03 10:44:11;;;;;;;1.20;0.77;;;;;;;;;;5043770;28;21184;-66
2023/04/03 10:46:44;;;;;;;1.20;0.77;;;;;;;;;;5034200;23;21499;-67
2023/04/03 10:49:21;;;;;;;2.60;1.00;;;;;;;;;;4978843;28;20915;-67
2023/04/03 10:51:48;;;;;;;1.60;0.87;;;;;;;;;;4979857;28;20402;-67
2023/04/03 10:54:27;;;;;;;1.60;0.80;;;;;;;;;;4980918;28;20414;-67
2023/04/03 10:56:55;;;;;;;1.60;0.70;;;;;;;;;;4979095;28;20585;-67
2023/04/03 10:59:25;;;;;;;0.80;0.70;;;;;;;;;;4980853;28;21294;-67
2023/04/03 11:01:59;;;;;;;2.33;0.90;;;;;;;;;;4980409;28;20427;-67
2023/04/03 11:04:27;;;;;;;2.33;0.97;;;;;;;;;;4979760;28;20457;-67
2023/04/03 11:06:58;;;;;;;1.13;0.77;;;;;;;;;;4981025;28;20436;-67
2023/04/03 11:09:24;;;;;;;1.37;0.80;;;;;;;;;;4980883;28;20433;-67
2023/04/03 11:11:51;;;;;;;1.37;0.70;;;;;;;;;;4981141;28;20509;-67
2023/04/03 11:14:28;;;;;;;4.00;1.00;;;;;;;;;;4980229;28;20193;-67
2023/04/03 11:17:13;;;;;;;1.50;0.80;;;;;;;;;;4975631;28;20469;-67
2023/04/03 11:19:42;;;;;;;1.43;0.87;;;;;;;;;;4977472;28;20507;-68
2023/04/03 11:22:13;;;;;;;2.17;0.80;;;;;;;;;;4978327;28;20428;-66
2023/04/03 11:24:41;;;;;;;1.20;0.80;;;;;;;;;;4981143;28;20433;-68
2023/04/03 11:27:12;;;;;;;2.30;0.80;;;;;;;;;;4981841;28;20421;-68
2023/04/03 11:29:39;;;;;;;1.03;0.70;;;;;;;;;;4986577;28;20817;-67
2023/04/03 11:32:17;;;;;;;2.60;1.47;;;;;;;;;;4978516;28;20428;-67
2023/04/03 11:34:44;;;;;;;5.20;3.40;;;;;;;;;;4976917;28;20438;-68
2023/04/03 11:37:21;;;;;;;2.47;1.67;;;;;;;;;;4978939;28;20958;-68
2023/04/03 11:39:49;;;;;;;1.13;1.03;;;;;;;;;;4977607;28;21009;-68
2023/04/03 11:42:24;;;;;;;2.70;0.90;;;;;;;;;;4979049;28;20417;-67
2023/04/03 11:44:49;;;;;;;2.03;0.73;;;;;;;;;;4978475;28;20433;-67
2023/04/03 11:47:35;;;;;;;2.60;1.00;;;;;;;;;;4979014;28;20511;-67
2023/04/03 11:50:02;;;;;;;2.90;2.00;;;;;;;;;;4978177;28;20263;-67
2023/04/03 11:52:40;;;;;;;2.87;1.70;;;;;;;;;;4980411;28;20452;-68
2023/04/03 11:55:31;;;;;;;2.47;0.93;;;;;;;;;;4980448;28;20429;-68
2023/04/03 11:57:57;;;;;;;1.57;0.97;;;;;;;;;;4987278;28;20508;-67
2023/04/03 12:00:41;;;;;;;2.17;0.70;;;;;;;;;;4979938;28;20484;-67
2023/04/03 12:03:29;;;;;;;1.43;0.80;;;;;;;;;;4978876;28;20190;-67
2023/04/03 12:05:57;;;;;;;3.73;1.50;;;;;;;;;;4977192;28;20428;-67
2023/04/03 12:08:46;;;;;;;3.40;2.13;;;;;;;;;;4975490;28;20437;-67
2023/04/03 12:11:12;;;;;;;1.40;0.90;;;;;;;;;;4978717;28;20426;-68
2023/04/03 12:13:38;;;;;;;4.40;1.20;;;;;;;;;;4977912;28;20438;-67
2023/04/03 12:16:05;;;;;;;1.97;0.93;;;;;;;;;;4978287;28;20197;-68
2023/04/03 12:18:42;;;;;;;1.13;0.70;;;;;;;;;;4980340;28;20456;-68
2023/04/03 12:21:07;;;;;;;2.23;1.30;;;;;;;;;;4982855;28;20430;-67
2023/04/03 12:23:34;;;;;;;2.13;1.07;;;;;;;;;;4976143;28;21259;-68
2023/04/03 12:26:19;;;;;;;2.53;0.80;;;;;;;;;;4979130;28;20261;-73
2023/04/03 12:28:46;;;;;;;1.60;0.70;;;;;;;;;;4978482;28;20462;-68
2023/04/03 12:31:12;;;;;;;1.20;0.77;;;;;;;;;;4979244;28;20424;-68
2023/04/03 12:33:42;;;;;;;1.43;0.80;;;;;;;;;;4980481;28;20425;-67
2023/04/03 12:36:13;;;;;;;2.53;1.00;;;;;;;;;;4980440;28;20418;-67
2023/04/03 12:39:01;;;;;;;1.60;0.80;;;;;;;;;;4977255;28;20538;-67
2023/04/03 12:41:52;;;;;;;2.13;1.00;;;;;;;;;;4979304;28;20449;-67
2023/04/03 12:44:17;;;;;;;6.13;0.80;;;;;;;;;;4980004;28;20421;-68
2023/04/03 12:46:45;;;;;;;1.90;0.80;;;;;;;;;;4976190;28;20461;-68
2023/04/03 12:49:33;;;;;;;1.13;0.70;;;;;;;;;;4975790;28;20218;-68
2023/04/03 12:51:59;;;;;;;3.40;0.90;;;;;;;;;;4983258;28;20475;-67
2023/04/03 12:54:39;;;;;;;2.40;1.37;;;;;;;;;;4979446;28;21003;-67
2023/04/03 12:57:10;;;;;;;2.17;0.80;;;;;;;;;;4982092;28;21016;-65
2023/04/03 12:59:36;;;;;;;2.53;1.27;;;;;;;;;;4979568;28;20615;-68
2023/04/03 13:02:02;;;;;;;2.90;0.83;;;;;;;;;;4977685;28;20931;-67
2023/04/03 13:04:27;;;;;;;1.60;0.80;;;;;;;;;;4978842;28;20178;-67
2023/04/03 13:06:53;;;;;;;2.10;0.80;;;;;;;;;;4980626;28;20201;-67
2023/04/03 13:09:23;;;;;;;1.87;0.90;;;;;;;;;;4976145;28;20201;-67
2023/04/03 13:11:50;;;;;;;2.20;0.80;;;;;;;;;;4979406;28;20205;-68
2023/04/03 13:14:17;;;;;;;1.67;0.83;;;;;;;;;;4978345;28;20436;-68
2023/04/03 13:16:52;;;;;;;1.57;0.90;;;;;;;;;;4981272;28;20473;-68
2023/04/03 13:19:17;;;;;;;4.47;1.10;;;;;;;;;;4977051;28;20511;-67
2023/04/03 13:21:43;;;;;;;1.57;1.00;;;;;;;;;;4977582;28;20606;-67
2023/04/03 13:24:09;;;;;;;2.13;1.20;;;;;;;;;;4978791;28;21063;-67
2023/04/03 13:26:35;;;;;;;3.43;0.90;;;;;;;;;;4978045;28;20189;-67
2023/04/03 13:29:05;;;;;;;1.90;1.10;;;;;;;;;;4976214;28;20206;-67
2023/04/03 13:31:32;;;;;;;9.60;1.90;;;;;;;;;;4979811;28;20194;-67
2023/04/03 13:33:58;;;;;;;1.47;1.00;;;;;;;;;;4976250;28;20956;-67
2023/04/03 13:36:30;;;;;;;1.90;0.83;;;;;;;;;;4975712;28;20457;-67
2023/04/03 13:39:04;;;;;;;2.63;1.00;;;;;;;;;;4978544;28;20289;-69
2023/04/03 13:41:48;;;;;;;0.70;0.60;;;;;;;;;;4983797;28;20443;-67
2023/04/03 13:44:25;;;;;;;0.97;0.80;;;;;;;;;;4980949;28;20401;-67
2023/04/03 13:46:51;;;;;;;2.20;0.80;;;;;;;;;;4980245;28;20437;-67
2023/04/03 13:49:21;;;;;;;2.50;0.90;;;;;;;;;;4979936;28;20991;-67
2023/04/03 13:51:47;;;;;;;1.77;0.60;;;;;;;;;;4979670;28;20425;-67
2023/04/03 13:54:23;;;;;;;3.43;0.70;;;;;;;;;;4980538;28;20452;-67
2023/04/03 13:56:53;;;;;;;2.20;0.80;;;;;;;;;;4978156;28;20341;-67
2023/04/03 13:59:18;;;;;;;1.83;0.70;;;;;;;;;;4980804;28;21105;-67
2023/04/03 14:01:49;;;;;;;2.50;0.70;;;;;;;;;;4982721;28;20470;-67
2023/04/03 14:04:19;;;;;;;2.10;0.70;;;;;;;;;;4979553;28;20273;-67
2023/04/03 14:06:45;;;;;;;1.10;0.70;;;;;;;;;;4981074;28;20414;-67
2023/04/03 14:09:11;;;;;;;3.80;0.80;;;;;;;;;;4990587;28;20463;-67
2023/04/03 14:11:36;;;;;;;1.33;0.90;;;;;;;;;;4981582;28;20452;-67
2023/04/03 14:14:05;;;;;;;1.47;0.80;;;;;;;;;;4981036;28;20181;-67
2023/04/03 14:16:31;;;;;;;2.10;0.77;;;;;;;;;;4981362;28;20206;-67
2023/04/03 14:18:57;;;;;;;3.10;0.83;;;;;;;;;;4983091;28;20886;-67
2023/04/03 14:21:23;;;;;;;1.00;0.80;;;;;;;;;;4980384;28;20505;-67
2023/04/03 14:23:48;;;;;;;2.50;0.77;;;;;;;;;;4982461;28;20227;-67
2023/04/03 14:26:18;;;;;;;0.80;0.70;;;;;;;;;;4982040;28;20232;-67
2023/04/03 14:28:48;;;;;;;1.60;0.80;;;;;;;;;;4978009;28;20203;-67
2023/04/03 14:31:15;;;;;;;1.70;1.10;;;;;;;;;;4980815;28;20862;-67
2023/04/03 14:33:41;;;;;;;1.77;0.93;;;;;;;;;;4976144;28;20520;-67
2023/04/03 14:36:24;;;;;;;1.33;0.87;;;;;;;;;;4977297;28;20429;-68
2023/04/03 14:38:51;;;;;;;1.10;0.80;;;;;;;;;;4971978;28;21165;-67
2023/04/03 14:41:17;;;;;;;1.33;0.70;;;;;;;;;;4976340;28;20532;-66
2023/04/03 14:43:43;;;;;;;1.00;0.80;;;;;;;;;;4975895;28;20425;-68
2023/04/03 14:46:13;;;;;;;2.60;0.97;;;;;;;;;;4972076;28;20435;-68
2023/04/03 14:48:39;;;;;;;1.40;0.80;;;;;;;;;;4972944;28;20228;-67